createdAt,value
2019-05-21T00:00:51.004Z,16.70
2019-05-21T00:03:43.298Z,16.70
2019-05-21T00:06:35.121Z,16.70
2019-05-21T00:09:30.328Z,16.70
2019-05-21T00:12:22.117Z,16.70
2019-05-21T00:15:12.040Z,16.80
2019-05-21T00:18:04.546Z,16.80
2019-05-21T00:20:53.714Z,16.80
2019-05-21T00:23:43.008Z,16.80
2019-05-21T00:26:32.802Z,16.90
2019-05-21T00:30:17.069Z,16.90
2019-05-21T00:34:00.910Z,16.90
2019-05-21T00:37:45.185Z,16.90
2019-05-21T00:41:29.135Z,16.90
2019-05-21T00:44:18.118Z,16.90
2019-05-21T00:47:10.226Z,16.90
2019-05-21T00:49:59.526Z,16.90
2019-05-21T00:52:48.352Z,16.80
2019-05-21T00:55:37.515Z,16.80
2019-05-21T00:58:26.764Z,16.80
2019-05-21T01:01:16.260Z,16.70
2019-05-21T01:04:05.195Z,16.70
2019-05-21T01:06:54.524Z,16.60
2019-05-21T01:09:43.548Z,16.50
2019-05-21T01:12:33.544Z,16.40
2019-05-21T01:15:22.803Z,16.30
2019-05-21T01:18:12.289Z,16.20
2019-05-21T01:21:01.265Z,16.20
2019-05-21T01:23:50.503Z,16.10
2019-05-21T01:26:40.195Z,16.10
2019-05-21T01:29:28.984Z,16.10
2019-05-21T01:32:18.328Z,16.10
2019-05-21T01:35:16.667Z,16.00
2019-05-21T01:37:58.302Z,16.10
2019-05-21T01:40:47.369Z,16.00
2019-05-21T01:43:36.739Z,16.00
2019-05-21T01:46:25.493Z,15.90
2019-05-21T01:49:14.998Z,15.70
2019-05-21T01:52:04.228Z,15.60
2019-05-21T01:54:53.410Z,15.50
2019-05-21T01:57:42.609Z,15.40
2019-05-21T02:00:31.733Z,15.40
2019-05-21T02:03:21.434Z,15.30
2019-05-21T02:06:10.430Z,15.30
2019-05-21T02:09:00.165Z,15.30
2019-05-21T02:11:49.750Z,15.40
2019-05-21T02:14:38.909Z,15.40
2019-05-21T02:17:28.590Z,15.40
2019-05-21T02:20:17.860Z,15.40
2019-05-21T02:23:07.566Z,15.40
2019-05-21T02:25:57.090Z,15.40
2019-05-21T02:28:45.992Z,15.40
2019-05-21T02:31:35.279Z,15.40
2019-05-21T02:34:24.515Z,15.40
2019-05-21T02:37:14.097Z,15.40
2019-05-21T02:40:03.591Z,15.30
2019-05-21T02:42:52.533Z,15.30
2019-05-21T02:45:41.670Z,15.30
2019-05-21T02:48:31.090Z,15.20
2019-05-21T02:51:19.612Z,15.20
2019-05-21T02:54:08.482Z,15.20
2019-05-21T02:56:57.492Z,15.20
2019-05-21T02:59:48.506Z,15.30
2019-05-21T03:02:39.459Z,15.20
2019-05-21T03:05:28.359Z,15.20
2019-05-21T03:08:17.399Z,15.20
2019-05-21T03:11:06.490Z,15.20
2019-05-21T03:13:55.828Z,15.20
2019-05-21T03:16:45.052Z,15.20
2019-05-21T03:19:34.789Z,15.20
2019-05-21T03:22:23.231Z,15.20
2019-05-21T03:25:13.425Z,15.20
2019-05-21T03:28:02.755Z,15.20
2019-05-21T03:30:51.801Z,15.20
2019-05-21T03:33:41.130Z,15.20
2019-05-21T03:36:33.858Z,15.10
2019-05-21T03:39:21.917Z,15.20
2019-05-21T03:42:10.685Z,15.20
2019-05-21T03:45:01.118Z,15.20
2019-05-21T03:47:50.951Z,15.20
2019-05-21T03:50:41.370Z,15.20
2019-05-21T03:53:31.035Z,15.30
2019-05-21T03:56:19.984Z,15.30
2019-05-21T03:59:09.674Z,15.20
2019-05-21T04:01:58.744Z,15.20
2019-05-21T04:04:47.892Z,15.20
2019-05-21T04:07:37.280Z,15.30
2019-05-21T04:10:26.738Z,15.30
2019-05-21T04:13:15.947Z,15.30
2019-05-21T04:16:19.155Z,15.30
2019-05-21T04:19:15.854Z,15.30
2019-05-21T04:22:09.719Z,15.30
2019-05-21T04:24:59.428Z,15.30
2019-05-21T04:27:48.648Z,15.30
2019-05-21T04:30:37.746Z,15.30
2019-05-21T04:33:26.605Z,15.30
2019-05-21T04:36:15.875Z,15.30
2019-05-21T04:39:07.201Z,15.40
2019-05-21T04:41:56.056Z,15.50
2019-05-21T04:44:45.423Z,15.50
2019-05-21T04:47:34.904Z,15.50
2019-05-21T04:50:24.169Z,15.60
2019-05-21T04:53:13.261Z,15.60
2019-05-21T04:56:02.916Z,15.60
2019-05-21T04:58:51.868Z,15.70
2019-05-21T05:01:41.149Z,15.70
2019-05-21T05:04:30.224Z,15.70
2019-05-21T05:07:28.214Z,15.70
2019-05-21T05:10:11.008Z,15.80
2019-05-21T05:13:00.030Z,15.80
2019-05-21T05:15:49.230Z,15.80
2019-05-21T05:18:38.292Z,15.80
2019-05-21T05:21:27.764Z,15.80
2019-05-21T05:24:16.814Z,15.90
2019-05-21T05:27:06.327Z,15.90
2019-05-21T05:29:55.682Z,16.00
2019-05-21T05:32:44.655Z,16.00
2019-05-21T05:35:34.125Z,15.90
2019-05-21T05:38:23.501Z,15.90
2019-05-21T05:41:13.038Z,15.90
2019-05-21T05:44:02.122Z,15.90
2019-05-21T05:46:51.291Z,15.90
2019-05-21T05:49:44.766Z,15.90
2019-05-21T05:52:33.722Z,15.80
2019-05-21T05:55:22.890Z,15.80
2019-05-21T05:58:12.354Z,15.80
2019-05-21T06:01:01.840Z,15.90
2019-05-21T06:03:50.646Z,15.90
2019-05-21T06:06:40.386Z,15.80
2019-05-21T06:09:29.340Z,15.80
2019-05-21T06:12:22.058Z,15.70
2019-05-21T06:15:11.734Z,15.70
2019-05-21T06:18:01.143Z,15.70
2019-05-21T06:20:50.825Z,15.70
2019-05-21T06:23:39.359Z,15.70
2019-05-21T06:26:29.053Z,15.70
2019-05-21T06:29:18.123Z,15.80
2019-05-21T06:32:07.539Z,15.80
2019-05-21T06:34:56.836Z,15.80
2019-05-21T06:37:46.439Z,15.80
2019-05-21T06:40:38.448Z,15.80
2019-05-21T06:43:26.828Z,15.80
2019-05-21T06:46:16.100Z,15.80
2019-05-21T06:49:05.078Z,15.90
2019-05-21T06:51:54.117Z,15.90
2019-05-21T06:54:42.667Z,15.90
2019-05-21T06:57:32.108Z,15.90
2019-05-21T07:00:20.980Z,15.90
2019-05-21T07:03:09.862Z,15.90
2019-05-21T07:05:59.729Z,16.00
2019-05-21T07:08:49.837Z,15.90
2019-05-21T07:11:39.253Z,15.90
2019-05-21T07:14:28.224Z,15.90
2019-05-21T07:17:17.008Z,15.90
2019-05-21T07:20:09.822Z,15.90
2019-05-21T07:22:59.092Z,15.90
2019-05-21T07:25:47.993Z,16.00
2019-05-21T07:28:36.952Z,16.10
2019-05-21T07:31:26.046Z,16.20
2019-05-21T07:34:15.733Z,16.20
2019-05-21T07:37:04.192Z,16.30
2019-05-21T07:39:53.339Z,16.30
2019-05-21T07:42:41.804Z,16.30
2019-05-21T07:45:30.963Z,16.30
2019-05-21T07:48:20.549Z,16.30
2019-05-21T07:51:10.018Z,16.30
2019-05-21T07:53:58.942Z,16.30
2019-05-21T07:56:48.153Z,16.30
2019-05-21T07:59:37.122Z,16.40
2019-05-21T08:02:26.123Z,16.40
2019-05-21T08:05:15.350Z,16.40
2019-05-21T08:08:05.326Z,16.30
2019-05-21T08:10:54.403Z,16.30
2019-05-21T08:13:43.226Z,16.30
2019-05-21T08:16:32.614Z,16.20
2019-05-21T08:19:22.108Z,16.30
2019-05-21T08:22:11.665Z,16.20
2019-05-21T08:25:00.690Z,16.20
2019-05-21T08:27:50.407Z,16.30
2019-05-21T08:30:39.701Z,16.30
2019-05-21T08:33:29.777Z,16.30
2019-05-21T08:36:19.303Z,16.30
2019-05-21T08:39:09.638Z,16.40
2019-05-21T08:41:59.087Z,16.40
2019-05-21T08:44:48.687Z,16.40
2019-05-21T08:47:38.100Z,16.50
2019-05-21T08:50:27.492Z,16.50
2019-05-21T08:53:16.446Z,16.40
2019-05-21T08:56:05.865Z,16.50
2019-05-21T08:58:55.142Z,16.60
2019-05-21T09:01:44.548Z,16.60
2019-05-21T09:05:18.246Z,16.60
2019-05-21T09:07:24.292Z,16.60
2019-05-21T09:10:14.349Z,16.60
2019-05-21T09:13:03.844Z,16.60
2019-05-21T09:15:52.793Z,16.70
2019-05-21T09:18:42.071Z,16.60
2019-05-21T09:21:30.969Z,16.60
2019-05-21T09:24:20.719Z,16.50
2019-05-21T09:27:10.005Z,16.50
2019-05-21T09:29:59.259Z,16.30
2019-05-21T09:32:48.408Z,16.30
2019-05-21T09:35:38.103Z,16.30
2019-05-21T09:38:27.130Z,16.20
2019-05-21T09:41:15.632Z,16.20
2019-05-21T09:44:05.032Z,16.20
2019-05-21T09:46:54.054Z,16.20
2019-05-21T09:49:43.128Z,16.20
2019-05-21T09:52:32.490Z,16.30
2019-05-21T09:55:21.965Z,16.30
2019-05-21T09:58:11.024Z,16.50
2019-05-21T10:01:09.283Z,16.60
2019-05-21T10:04:00.334Z,16.70
2019-05-21T10:06:49.357Z,16.80
2019-05-21T10:09:38.366Z,16.90
2019-05-21T10:12:27.641Z,16.80
2019-05-21T10:15:17.087Z,16.80
2019-05-21T10:18:06.278Z,16.80
2019-05-21T10:20:55.534Z,16.90
2019-05-21T10:23:44.583Z,17.00
2019-05-21T10:26:34.610Z,17.10
2019-05-21T10:29:24.261Z,17.00
2019-05-21T10:32:13.612Z,17.00
2019-05-21T10:35:03.960Z,16.90
2019-05-21T10:37:55.231Z,16.90
2019-05-21T10:40:44.817Z,16.90
2019-05-21T10:43:34.148Z,17.00
2019-05-21T10:46:23.246Z,17.00
2019-05-21T10:49:12.398Z,17.10
2019-05-21T10:52:01.699Z,17.30
2019-05-21T10:54:50.619Z,17.30
2019-05-21T10:57:40.224Z,17.40
2019-05-21T11:00:30.775Z,17.60
2019-05-21T11:03:37.932Z,17.60
2019-05-21T11:06:26.868Z,17.50
2019-05-21T11:09:17.538Z,17.50
2019-05-21T11:12:07.878Z,17.50
2019-05-21T11:14:56.336Z,17.60
2019-05-21T11:18:07.140Z,17.70
2019-05-21T11:20:36.439Z,17.60
2019-05-21T11:23:25.988Z,17.60
2019-05-21T11:26:15.775Z,17.60
2019-05-21T11:29:05.220Z,17.70
2019-05-21T11:31:57.440Z,17.80
2019-05-21T11:34:45.067Z,17.90
2019-05-21T11:37:34.389Z,17.80
2019-05-21T11:40:25.607Z,17.80
2019-05-21T11:43:15.168Z,17.80
2019-05-21T11:46:04.646Z,17.70
2019-05-21T11:48:53.860Z,17.80
2019-05-21T11:51:43.090Z,18.00
2019-05-21T11:54:31.747Z,18.20
2019-05-21T11:57:20.993Z,18.20
2019-05-21T12:00:12.804Z,18.20
2019-05-21T12:03:02.216Z,18.00
2019-05-21T12:05:50.952Z,18.00
2019-05-21T12:08:55.165Z,17.90
2019-05-21T12:11:31.054Z,17.90
2019-05-21T12:14:20.452Z,17.90
2019-05-21T12:17:09.791Z,18.10
2019-05-21T12:19:58.426Z,18.10
2019-05-21T12:22:47.496Z,18.10
2019-05-21T12:25:36.025Z,18.20
2019-05-21T12:28:25.214Z,18.20
2019-05-21T12:31:14.369Z,18.30
2019-05-21T12:34:03.864Z,18.30
2019-05-21T12:36:52.821Z,18.40
2019-05-21T12:39:42.502Z,18.40
2019-05-21T12:42:31.500Z,18.40
2019-05-21T12:45:21.043Z,18.30
2019-05-21T12:48:10.619Z,18.40
2019-05-21T12:50:59.675Z,18.30
2019-05-21T12:53:48.814Z,18.10
2019-05-21T12:56:40.803Z,18.20
2019-05-21T12:59:29.354Z,18.30
2019-05-21T13:02:18.923Z,18.40
2019-05-21T13:05:11.352Z,18.40
2019-05-21T13:07:59.567Z,18.50
2019-05-21T13:10:48.661Z,18.50
2019-05-21T13:13:37.016Z,18.50
2019-05-21T13:16:26.285Z,18.40
2019-05-21T13:19:15.743Z,18.30
2019-05-21T13:22:05.399Z,18.30
2019-05-21T13:24:54.264Z,18.20
2019-05-21T13:27:43.286Z,18.10
2019-05-21T13:30:32.472Z,18.10
2019-05-21T13:33:22.103Z,18.00
2019-05-21T13:36:11.661Z,17.90
2019-05-21T13:39:00.539Z,17.70
2019-05-21T13:41:49.647Z,17.70
2019-05-21T13:44:38.464Z,17.70
2019-05-21T13:47:27.675Z,17.70
2019-05-21T13:50:16.702Z,17.70
2019-05-21T13:53:05.760Z,17.50
2019-05-21T13:55:54.841Z,17.30
2019-05-21T13:58:44.197Z,17.10
2019-05-21T14:01:40.542Z,17.00
2019-05-21T14:04:24.535Z,16.80
2019-05-21T14:07:13.893Z,16.80
2019-05-21T14:10:14.092Z,16.80
2019-05-21T14:12:54.347Z,16.70
2019-05-21T14:15:43.542Z,16.70
2019-05-21T14:18:32.561Z,16.60
2019-05-21T14:21:22.246Z,16.50
2019-05-21T14:24:10.995Z,16.40
2019-05-21T14:27:00.471Z,16.30
2019-05-21T14:29:49.718Z,16.30
2019-05-21T14:32:39.152Z,16.20
2019-05-21T14:35:28.272Z,16.20
2019-05-21T14:38:17.861Z,16.10
2019-05-21T14:41:06.910Z,16.10
2019-05-21T14:43:56.604Z,16.10
2019-05-21T14:46:46.071Z,16.00
2019-05-21T14:49:35.146Z,15.90
2019-05-21T14:52:24.300Z,16.00
2019-05-21T14:55:13.787Z,15.90
2019-05-21T14:58:02.963Z,15.90
2019-05-21T15:00:52.220Z,15.80
2019-05-21T15:03:41.087Z,15.70
2019-05-21T15:06:29.722Z,15.70
2019-05-21T15:09:18.797Z,15.60
2019-05-21T15:12:07.701Z,15.50
2019-05-21T15:14:56.938Z,15.50
2019-05-21T15:17:46.411Z,15.40
2019-05-21T15:20:53.085Z,15.30
2019-05-21T15:23:42.849Z,15.30
2019-05-21T15:26:33.059Z,15.20
2019-05-21T15:29:22.373Z,15.10
2019-05-21T15:32:11.799Z,15.10
2019-05-21T15:35:01.520Z,15.10
2019-05-21T15:37:50.340Z,15.10
2019-05-21T15:40:39.502Z,15.00
2019-05-21T15:43:28.918Z,15.00
2019-05-21T15:46:18.560Z,15.00
2019-05-21T15:49:07.348Z,15.00
2019-05-21T15:51:56.693Z,15.00
2019-05-21T15:54:46.593Z,14.90
2019-05-21T15:57:35.521Z,14.90
2019-05-21T16:00:24.802Z,15.00
2019-05-21T16:03:13.278Z,15.00
2019-05-21T16:06:02.556Z,15.00
2019-05-21T16:08:51.798Z,14.90
2019-05-21T16:11:41.263Z,14.80
2019-05-21T16:14:30.574Z,14.80
2019-05-21T16:17:19.699Z,14.60
2019-05-21T16:20:09.698Z,14.70
2019-05-21T16:22:58.854Z,14.60
2019-05-21T16:25:48.300Z,14.50
2019-05-21T16:28:37.088Z,14.60
2019-05-21T16:31:25.981Z,14.50
2019-05-21T16:34:15.322Z,14.50
2019-05-21T16:37:04.510Z,14.40
2019-05-21T16:39:53.553Z,14.40
2019-05-21T16:42:42.496Z,14.40
2019-05-21T16:45:32.188Z,14.40
2019-05-21T16:48:21.496Z,14.40
2019-05-21T16:51:10.834Z,14.40
2019-05-21T16:54:00.259Z,14.40
2019-05-21T16:56:49.694Z,14.40
2019-05-21T16:59:38.764Z,14.40
2019-05-21T17:02:28.420Z,14.30
2019-05-21T17:05:17.806Z,14.30
2019-05-21T17:08:07.165Z,14.20
2019-05-21T17:10:56.101Z,14.20
2019-05-21T17:13:45.213Z,14.10
2019-05-21T17:16:34.160Z,14.10
2019-05-21T17:19:23.009Z,14.10
2019-05-21T17:22:12.290Z,14.10
2019-05-21T17:25:01.369Z,14.10
2019-05-21T17:27:50.698Z,14.10
2019-05-21T17:30:40.387Z,14.10
2019-05-21T17:33:29.768Z,14.00
2019-05-21T17:36:19.039Z,14.00
2019-05-21T17:39:08.215Z,14.00
2019-05-21T17:41:57.684Z,13.90
2019-05-21T17:44:46.871Z,13.90
2019-05-21T17:47:36.430Z,13.90
2019-05-21T17:50:25.814Z,13.90
2019-05-21T17:53:15.270Z,13.80
2019-05-21T17:56:04.616Z,13.90
2019-05-21T17:58:53.974Z,13.80
2019-05-21T18:01:44.004Z,13.70
2019-05-21T18:04:34.411Z,13.70
2019-05-21T18:07:24.190Z,13.70
2019-05-21T18:10:16.319Z,13.70
2019-05-21T18:13:06.000Z,13.70
2019-05-21T18:15:56.615Z,13.60
2019-05-21T18:18:46.377Z,13.60
2019-05-21T18:21:36.058Z,13.60
2019-05-21T18:24:25.648Z,13.60
2019-05-21T18:27:14.913Z,13.60
2019-05-21T18:30:05.607Z,13.50
2019-05-21T18:32:55.902Z,13.60
2019-05-21T18:35:45.425Z,13.60
2019-05-21T18:38:35.415Z,13.50
2019-05-21T18:41:25.021Z,13.50
2019-05-21T18:44:14.410Z,13.50
2019-05-21T18:47:02.893Z,13.50
2019-05-21T18:49:52.436Z,13.50
2019-05-21T18:52:41.506Z,13.50
2019-05-21T18:55:30.604Z,13.50
2019-05-21T18:58:19.492Z,13.40
2019-05-21T19:01:08.172Z,13.50
2019-05-21T19:03:58.215Z,13.40
2019-05-21T19:06:47.612Z,13.50
2019-05-21T19:09:37.067Z,13.40
2019-05-21T19:12:37.469Z,13.40
2019-05-21T19:15:17.048Z,13.40
2019-05-21T19:18:06.388Z,13.40
2019-05-21T19:20:55.167Z,13.40
2019-05-21T19:23:44.709Z,13.40
2019-05-21T19:26:33.799Z,13.30
2019-05-21T19:29:23.254Z,13.30
2019-05-21T19:32:12.628Z,13.30
2019-05-21T19:35:02.204Z,13.20
2019-05-21T19:37:51.356Z,13.20
2019-05-21T19:40:40.321Z,13.20
2019-05-21T19:43:29.426Z,13.20
2019-05-21T19:46:18.755Z,13.20
2019-05-21T19:49:08.197Z,13.20
2019-05-21T19:51:57.603Z,13.10
2019-05-21T19:54:47.070Z,13.10
2019-05-21T19:57:36.339Z,13.10
2019-05-21T20:00:29.399Z,13.10
2019-05-21T20:03:19.586Z,13.10
2019-05-21T20:06:08.545Z,13.10
2019-05-21T20:08:58.139Z,13.10
2019-05-21T20:11:46.818Z,13.10
2019-05-21T20:14:36.983Z,13.10
2019-05-21T20:17:29.405Z,13.00
2019-05-21T20:20:21.304Z,13.00
2019-05-21T20:23:12.362Z,13.00
2019-05-21T20:26:02.150Z,13.00
2019-05-21T20:28:51.490Z,13.00
2019-05-21T20:31:41.600Z,13.00
2019-05-21T20:34:31.282Z,13.00
2019-05-21T20:37:21.882Z,13.00
2019-05-21T20:40:12.818Z,12.90
2019-05-21T20:43:02.366Z,13.00
2019-05-21T20:45:51.944Z,13.00
2019-05-21T20:48:40.662Z,12.90
2019-05-21T20:51:31.303Z,12.90
2019-05-21T20:54:21.827Z,12.80
2019-05-21T20:57:11.592Z,12.80
2019-05-21T21:00:01.156Z,12.80
2019-05-21T21:02:52.475Z,12.80
2019-05-21T21:05:42.165Z,12.70
2019-05-21T21:08:33.437Z,12.70
2019-05-21T21:11:23.463Z,12.60
2019-05-21T21:14:17.959Z,12.60
2019-05-21T21:17:06.094Z,12.50
2019-05-21T21:19:55.770Z,12.60
2019-05-21T21:22:45.126Z,12.50
2019-05-21T21:25:34.532Z,12.50
2019-05-21T21:28:23.864Z,12.50
2019-05-21T21:31:13.366Z,12.50
2019-05-21T21:34:04.605Z,12.50
2019-05-21T21:36:54.466Z,12.50
2019-05-21T21:39:44.247Z,12.40
2019-05-21T21:42:34.543Z,12.50
2019-05-21T21:45:23.708Z,12.40
2019-05-21T21:48:14.511Z,12.30
2019-05-21T21:51:05.587Z,12.30
2019-05-21T21:53:55.343Z,12.30
2019-05-21T21:56:45.012Z,12.30
2019-05-21T21:59:33.873Z,12.20
2019-05-21T22:02:31.025Z,12.20
2019-05-21T22:05:22.405Z,12.30
2019-05-21T22:08:11.790Z,12.30
2019-05-21T22:11:01.694Z,12.20
2019-05-21T22:13:51.444Z,12.20
2019-05-21T22:16:40.212Z,12.20
2019-05-21T22:19:29.690Z,12.10
2019-05-21T22:22:19.648Z,12.10
2019-05-21T22:25:09.145Z,12.20
2019-05-21T22:27:59.027Z,12.10
2019-05-21T22:30:48.484Z,12.10
2019-05-21T22:33:37.974Z,12.00
2019-05-21T22:36:27.026Z,12.00
2019-05-21T22:39:20.544Z,12.00
2019-05-21T22:42:09.983Z,12.00
2019-05-21T22:45:08.105Z,12.00
2019-05-21T22:47:51.314Z,12.00
2019-05-21T22:50:40.132Z,12.00
2019-05-21T22:53:29.518Z,12.00
2019-05-21T22:56:18.237Z,12.00
2019-05-21T22:59:07.551Z,11.90
2019-05-21T23:01:58.345Z,12.00
2019-05-21T23:04:47.193Z,11.90
2019-05-21T23:07:36.180Z,11.90
2019-05-21T23:10:25.647Z,11.90
2019-05-21T23:13:14.619Z,11.90
2019-05-21T23:16:04.095Z,11.90
2019-05-21T23:18:53.617Z,11.90
2019-05-21T23:21:43.916Z,11.90
2019-05-21T23:24:33.433Z,11.80
2019-05-21T23:27:23.061Z,11.80
2019-05-21T23:30:15.970Z,11.80
2019-05-21T23:33:06.412Z,11.80
2019-05-21T23:35:55.938Z,11.80
2019-05-21T23:38:45.330Z,11.80
2019-05-21T23:41:34.503Z,11.80
2019-05-21T23:44:23.824Z,11.80
2019-05-21T23:47:13.936Z,11.70
2019-05-21T23:50:04.743Z,11.70
2019-05-21T23:52:55.025Z,11.80
2019-05-21T23:55:44.566Z,11.70
2019-05-21T23:58:34.709Z,11.70
